G.bellini — IKGF — position and weather

sailwx.info

Track history (hours):
 
Tides and Currents Weather Stations Pressure Air Temp Water Temp Dewpoint Dewpoint Depression Visibility Wind Speed Wind Dir Waves Ship Positions

G.bellini

Last reported at 2015-May-26 22:32 UTC. Time now 2015-May-27 20:04 UTC.
Position N 42°49' E 010°19'.

Length 72 m; draft 3.3 m.

Type: Ship. MMSI: 247041900.

Date/timePositionNaut miles runAvg speedWind from/ knotsBaromVisibWave heightAir tempDewpointWater temp
2015-May-26 22:32N 42°49' E 010°19'0 0.0
2015-May-26 21:30N 42°49' E 010°19'0 0.0
2015-May-25 16:27N 42°49' E 010°19'0 0.0
2015-May-25 15:18N 42°49' E 010°19'0 0.0
2015-May-25 14:04N 42°49' E 010°19'0 0.0
2015-May-25 12:32N 42°49' E 010°19'0 0.0
2015-May-25 10:32N 42°49' E 010°19'0 0.0
2015-May-25 08:30N 42°49' E 010°19'0 0.0
2015-May-25 07:33N 42°49' E 010°19'0 0.0
2015-May-25 06:33N 42°49' E 010°19'0 0.0
2015-May-25 05:33N 42°49' E 010°19'0 0.0
2015-May-25 04:33N 42°49' E 010°19'0 0.0
2015-May-25 02:20N 42°49' E 010°19'0 0.0
2015-May-24 23:04N 42°49' E 010°19'0 0.0
2015-May-24 22:20N 42°49' E 010°19'0 0.0
2015-May-24 21:32N 42°49' E 010°19'0 0.0
2015-May-24 20:33N 42°49' E 010°19'0 0.0
2015-May-24 19:31N 42°49' E 010°19'0 0.0
2015-May-24 16:30N 42°49' E 010°19'0 0.0
2015-May-24 15:33N 42°49' E 010°19'0 0.0
2015-May-24 11:14N 42°49' E 010°19'  
2015-May-21 22:06N 41°01' E 013°34'712.4
2015-May-21 21:32N 40°55' E 013°39'1212.4
2015-May-21 20:33N 40°45' E 013°47'1211.7
2015-May-21 19:33N 40°38' E 013°59'1312.8
2015-May-21 18:33N 40°43' E 014°15'7 3.5
2015-May-21 16:27N 40°51' E 014°17'0 0.0
2015-May-21 13:19N 40°51' E 014°17'0 0.0
2015-May-21 12:17N 40°51' E 014°17'0 0.0
2015-May-21 11:27N 40°51' E 014°17'0 0.0
2015-May-20 23:24N 40°51' E 014°17'0 0.0
2015-May-20 22:33N 40°51' E 014°17'0 0.0
2015-May-20 18:33N 40°51' E 014°17'0 0.0
2015-May-20 17:33N 40°51' E 014°17'1 1.2
2015-May-20 16:30N 40°49' E 014°17'5 4.9
2015-May-20 15:33N 40°45' E 014°20'3 3.0
2015-May-20 14:33N 40°42' E 014°21'3 3.0
2015-May-20 13:32N 40°44' E 014°18'3 2.7
2015-May-20 12:33N 40°47' E 014°17'4 2.9
2015-May-20 11:16N 40°51' E 014°17'0 0.0
2015-May-20 07:29N 40°51' E 014°17'0 0.0
2015-May-19 11:28N 40°51' E 014°17'0 0.0
2015-May-19 10:32N 40°51' E 014°17'0 0.0
2015-May-19 09:33N 40°51' E 014°17'0 0.0
2015-May-19 08:31N 40°51' E 014°17'0 0.0
2015-May-19 07:33N 40°51' E 014°17'  
Track history (hours):
 
Tides and Currents Weather Stations Pressure Air Temp Water Temp Dewpoint Dewpoint Depression Visibility Wind Speed Wind Dir Waves Ship Positions

G.bellini

Last reported at 2015-May-26 22:32 UTC. Time now 2015-May-27 20:04 UTC.
Position N 42°49' E 010°19'.

Length 72 m; draft 3.3 m.

Type: Ship. MMSI: 247041900.

Date/timePositionNaut miles runAvg speedWind from/ knotsBaromVisibWave heightAir tempDewpointWater temp
2015-May-26 22:32N 42°49' E 010°19'0 0.0
2015-May-26 21:30N 42°49' E 010°19'0 0.0
2015-May-25 16:27N 42°49' E 010°19'0 0.0
2015-May-25 15:18N 42°49' E 010°19'0 0.0
2015-May-25 14:04N 42°49' E 010°19'0 0.0
2015-May-25 12:32N 42°49' E 010°19'0 0.0
2015-May-25 10:32N 42°49' E 010°19'0 0.0
2015-May-25 08:30N 42°49' E 010°19'0 0.0
2015-May-25 07:33N 42°49' E 010°19'0 0.0
2015-May-25 06:33N 42°49' E 010°19'0 0.0
2015-May-25 05:33N 42°49' E 010°19'0 0.0
2015-May-25 04:33N 42°49' E 010°19'0 0.0
2015-May-25 02:20N 42°49' E 010°19'0 0.0
2015-May-24 23:04N 42°49' E 010°19'0 0.0
2015-May-24 22:20N 42°49' E 010°19'0 0.0
2015-May-24 21:32N 42°49' E 010°19'0 0.0
2015-May-24 20:33N 42°49' E 010°19'0 0.0
2015-May-24 19:31N 42°49' E 010°19'0 0.0
2015-May-24 16:30N 42°49' E 010°19'0 0.0
2015-May-24 15:33N 42°49' E 010°19'0 0.0
2015-May-24 11:14N 42°49' E 010°19'  
2015-May-21 22:06N 41°01' E 013°34'712.4
2015-May-21 21:32N 40°55' E 013°39'1212.4
2015-May-21 20:33N 40°45' E 013°47'1211.7
2015-May-21 19:33N 40°38' E 013°59'1312.8
2015-May-21 18:33N 40°43' E 014°15'7 3.5
2015-May-21 16:27N 40°51' E 014°17'0 0.0
2015-May-21 13:19N 40°51' E 014°17'0 0.0
2015-May-21 12:17N 40°51' E 014°17'0 0.0
2015-May-21 11:27N 40°51' E 014°17'0 0.0
2015-May-20 23:24N 40°51' E 014°17'0 0.0
2015-May-20 22:33N 40°51' E 014°17'0 0.0
2015-May-20 18:33N 40°51' E 014°17'0 0.0
2015-May-20 17:33N 40°51' E 014°17'1 1.2
2015-May-20 16:30N 40°49' E 014°17'5 4.9
2015-May-20 15:33N 40°45' E 014°20'3 3.0
2015-May-20 14:33N 40°42' E 014°21'3 3.0
2015-May-20 13:32N 40°44' E 014°18'3 2.7
2015-May-20 12:33N 40°47' E 014°17'4 2.9
2015-May-20 11:16N 40°51' E 014°17'0 0.0
2015-May-20 07:29N 40°51' E 014°17'0 0.0
2015-May-19 11:28N 40°51' E 014°17'0 0.0
2015-May-19 10:32N 40°51' E 014°17'0 0.0
2015-May-19 09:33N 40°51' E 014°17'0 0.0
2015-May-19 08:31N 40°51' E 014°17'0 0.0
2015-May-19 07:33N 40°51' E 014°17'  

Dump ship's entire track history